Lord Nelson — GHJV — position and weather

sailwx.info

Track history (hours):
 
Tides and Currents Weather Stations Pressure Air Temp Water Temp Dewpoint Dewpoint Depression Visibility Wind Speed Wind Dir Waves Ship Positions

Lord Nelson (United Kingdom)

Ship's website: http://www.jst.org.uk/

Last reported at 2015-Aug-26 11:12 UTC. Time now 2015-Aug-30 14:00 UTC.
Position N 51°30' W 000°01'.

Length 54.7 m; beam 9 m; draft 4.1 m.

Type: Sailing vessel. MMSI: 232003690.

Date/timePositionNaut miles runAvg speedWind from/ knotsBaromVisibWave heightAir tempDewpointWater temp
2015-Aug-26 11:12N 51°30' W 000°01'0 0.0
2015-Aug-26 09:23N 51°30' W 000°01'0 0.1
2015-Aug-26 08:31N 51°30' W 000°01'4 4.5
2015-Aug-26 07:33N 51°31' E 000°06'8 7.7
2015-Aug-26 06:34N 51°28' E 000°18'3 2.7
2015-Aug-26 05:34N 51°27' E 000°22'0 0.0
2015-Aug-26 04:34N 51°27' E 000°22'0 0.0
2015-Aug-26 03:34N 51°27' E 000°22'0 0.0
2015-Aug-26 02:34N 51°27' E 000°22'0 0.0
2015-Aug-26 01:34N 51°27' E 000°22'0 0.0
2015-Aug-26 00:33N 51°27' E 000°22'0 0.0
2015-Aug-25 23:33N 51°27' E 000°22'0 0.0
2015-Aug-25 22:33N 51°27' E 000°22'0 0.0
2015-Aug-25 21:34N 51°27' E 000°22'0 0.0
2015-Aug-25 20:34N 51°27' E 000°22'0 0.0
2015-Aug-25 19:34N 51°27' E 000°22'0 0.0
2015-Aug-25 18:33N 51°27' E 000°22'4 4.0
2015-Aug-25 17:33N 51°29' E 000°27'5 5.5
2015-Aug-25 16:33N 51°30' E 000°36'6 6.2
2015-Aug-25 15:33N 51°29' E 000°46'6 6.3
2015-Aug-25 14:33N 51°29' E 000°56'6 5.8
2015-Aug-25 13:33N 51°30' E 001°05'6 6.2
2015-Aug-25 12:33N 51°29' E 001°15'6 5.9
2015-Aug-25 11:33N 51°28' E 001°24'3 2.9
2015-Aug-25 10:32N 51°25' E 001°25'0 0.0
2015-Aug-25 09:32N 51°25' E 001°25'0 0.0
2015-Aug-25 07:31N 51°25' E 001°25'0 0.1
2015-Aug-25 06:31N 51°25' E 001°25'0 0.0
2015-Aug-25 05:31N 51°25' E 001°25'0 0.1
2015-Aug-25 04:31N 51°25' E 001°25'3 3.0
2015-Aug-25 03:33N 51°26' E 001°29'5 5.2
2015-Aug-25 02:33N 51°30' E 001°35'4 4.3
2015-Aug-25 01:33N 51°33' E 001°40'4 4.5
2015-Aug-25 00:33N 51°36' E 001°46'6 6.3
2015-Aug-24 23:33N 51°42' E 001°45'5 5.5
2015-Aug-24 22:33N 51°47' E 001°44'5 5.5
2015-Aug-24 21:33N 51°53' E 001°44'5 4.7
2015-Aug-24 20:33N 51°57' E 001°45'4 4.1
2015-Aug-24 19:34N 52°02' E 001°46'4 4.4
2015-Aug-24 18:33N 52°06' E 001°47'6 5.7
2015-Aug-24 17:33N 52°12' E 001°48'7 7.2
2015-Aug-24 16:33N 52°19' E 001°50'7 7.1
2015-Aug-24 15:33N 52°26' E 001°53'8 8.4
2015-Aug-24 14:33N 52°34' E 001°56'9 9.0
2015-Aug-24 13:33N 52°43' E 001°57'7 7.0
2015-Aug-24 12:33N 52°47' E 001°48'8 7.6
2015-Aug-24 11:34N 52°53' E 001°40'7 7.0
2015-Aug-24 10:34N 52°58' E 001°32'6 6.3
2015-Aug-24 09:33N 53°03' E 001°25'6 6.3
2015-Aug-24 08:34N 53°08' E 001°20'6 6.0
2015-Aug-24 07:33N 53°14' E 001°16'6 6.1
2015-Aug-24 06:33N 53°19' E 001°11'20 6.4
2015-Aug-24 03:27N 53°37' E 000°55'6 6.6
2015-Aug-24 02:33N 53°42' E 000°50'7 6.5
2015-Aug-24 01:33N 53°46' E 000°42'7 6.7
2015-Aug-24 00:33N 53°51' E 000°33'7 6.7
2015-Aug-23 23:33N 53°56' E 000°27'7 6.7
2015-Aug-23 22:33N 54°01' E 000°18'7 6.7
2015-Aug-23 21:33N 54°06' E 000°11'7 6.9
2015-Aug-23 20:33N 54°13' E 000°11'5 5.5
2015-Aug-23 19:33N 54°18' E 000°08'5 4.8
2015-Aug-23 18:33N 54°22' E 000°05'6 5.5
2015-Aug-23 17:33N 54°28' E 000°03'5 5.0
2015-Aug-23 16:33N 54°33' E 000°00'5 4.7
2015-Aug-23 15:33N 54°37' W 000°03'2 2.2
2015-Aug-23 14:33N 54°36' W 000°06'4 4.3
2015-Aug-23 13:33N 54°33' W 000°12'4 4.2
2015-Aug-23 12:33N 54°31' W 000°17'3 2.7
2015-Aug-23 11:33N 54°32' W 000°21'4 3.9
2015-Aug-23 10:34N 54°31' W 000°28'5 4.5
2015-Aug-23 09:30N 54°31' W 000°36'2 0.7
2015-Aug-23 07:24N 54°29' W 000°37'0 0.0
2015-Aug-23 02:27N 54°29' W 000°37'0 0.0
2015-Aug-23 01:30N 54°29' W 000°37'0 0.0
2015-Aug-22 23:18N 54°29' W 000°37'0 0.0
2015-Aug-22 22:09N 54°29' W 000°37'0 0.0
2015-Aug-22 17:27N 54°29' W 000°37'0 0.0
2015-Aug-22 16:15N 54°29' W 000°37'0 0.0
2015-Aug-22 15:18N 54°29' W 000°37'0 0.0
2015-Aug-22 13:18N 54°29' W 000°37'0 0.0
2015-Aug-22 09:27N 54°29' W 000°37'0 0.0
2015-Aug-22 05:33N 54°29' W 000°37'0 0.0
2015-Aug-22 04:32N 54°29' W 000°37'0 0.0
2015-Aug-22 02:29N 54°29' W 000°37'0 0.0
2015-Aug-22 00:32N 54°29' W 000°37'0 0.0
2015-Aug-21 23:33N 54°29' W 000°37'0 0.0
2015-Aug-21 22:23N 54°29' W 000°37'0 0.0
2015-Aug-21 21:29N 54°29' W 000°37'0 0.0
2015-Aug-21 18:23N 54°29' W 000°37'0 0.0
2015-Aug-21 17:29N 54°29' W 000°37'0 0.0
2015-Aug-21 16:29N 54°29' W 000°37'0 0.0
2015-Aug-21 12:23N 54°29' W 000°37'0 0.0
2015-Aug-21 11:32N 54°29' W 000°37'0 0.0
2015-Aug-21 10:23N 54°29' W 000°37'0 0.0
2015-Aug-21 09:23N 54°29' W 000°37'0 0.0
2015-Aug-21 07:32N 54°29' W 000°37'2 1.8
2015-Aug-21 06:30N 54°31' W 000°36'2 2.6
2015-Aug-21 05:33N 54°33' W 000°33'2 1.6
2015-Aug-21 04:30N 54°31' W 000°34'3 2.7
2015-Aug-21 03:33N 54°34' W 000°36'2 2.1
2015-Aug-21 02:32N 54°35' W 000°39'3 3.0
2015-Aug-21 01:33N 54°38' W 000°40'3 3.2
2015-Aug-21 00:33N 54°41' W 000°41'5 4.7
2015-Aug-20 23:33N 54°46' W 000°43'6 5.9
2015-Aug-20 22:33N 54°51' W 000°46'6 5.7
2015-Aug-20 21:25N 54°57' W 000°50'5 5.2
2015-Aug-20 20:33N 55°02' W 000°52'6 5.9
2015-Aug-20 19:28N 55°08' W 000°54'6 6.4
2015-Aug-20 18:31N 55°14' W 000°57'4 3.2
2015-Aug-20 17:26N 55°14' W 001°03'8 3.6
2015-Aug-20 15:09N 55°12' W 001°17'3 5.1
2015-Aug-20 14:33N 55°10' W 001°22'5 4.5
2015-Aug-20 13:32N 55°06' W 001°26'4 0.2
2015-Aug-19 16:32N 55°10' W 001°27'8 6.4
2015-Aug-19 15:22N 55°17' W 001°29'5 5.7
2015-Aug-19 14:32N 55°22' W 001°29'30 1.3
2015-Aug-18 15:32N 55°50' W 001°50'7 6.3
2015-Aug-18 14:25N 55°55' W 001°59'5 5.5
2015-Aug-18 13:33N 55°57' W 002°06'5 5.1
2015-Aug-18 12:33N 55°59' W 002°14'6 6.4
2015-Aug-18 11:33N 56°02' W 002°24'7 7.1
2015-Aug-18 10:33N 56°06' W 002°35'7 7.2
2015-Aug-18 09:33N 56°06' W 002°48'7 7.5
2015-Aug-18 08:33N 56°01' W 002°59'3 3.1
2015-Aug-18 07:33N 55°59' W 003°02'0 0.0
2015-Aug-18 06:33N 55°59' W 003°02'0 0.0
2015-Aug-18 05:33N 55°59' W 003°02'0 0.0
2015-Aug-18 04:24N 55°59' W 003°02'0 0.0
2015-Aug-18 04:09N 55°59' W 003°02'0 0.1
2015-Aug-18 04:06N 55°59' W 003°02'0 0.0
2015-Aug-18 03:24N 55°59' W 003°02'0 0.0
2015-Aug-18 02:24N 55°59' W 003°02'0 0.0
2015-Aug-18 01:27N 55°59' W 003°02'0 0.0
2015-Aug-18 00:27N 55°59' W 003°02'0 0.0
2015-Aug-17 23:27N 55°59' W 003°02'0 0.0
2015-Aug-17 22:27N 55°59' W 003°02'0 0.0
2015-Aug-17 21:27N 55°59' W 003°02'0 0.0
2015-Aug-17 20:27N 55°59' W 003°02'0 0.0
2015-Aug-17 19:33N 55°59' W 003°02'5 5.2
2015-Aug-17 18:33N 56°00' W 003°11'1 1.3
2015-Aug-17 17:31N 55°59' W 003°11'0 0.0
2015-Aug-17 16:30N 55°59' W 003°11'0 0.0
2015-Aug-17 15:33N 55°59' W 003°11'0 0.0
2015-Aug-17 14:33N 55°59' W 003°11'0 0.0
2015-Aug-17 13:33N 55°59' W 003°11'0 0.0
2015-Aug-17 12:33N 55°59' W 003°11'0 0.0
2015-Aug-17 11:33N 55°59' W 003°11'0 0.0
2015-Aug-17 10:33N 55°59' W 003°11'0 0.0
2015-Aug-17 09:33N 55°59' W 003°11'0 0.0
2015-Aug-17 08:33N 55°59' W 003°11'0 0.0
2015-Aug-17 07:33N 55°59' W 003°11'0 0.0
2015-Aug-17 06:21N 55°59' W 003°11'0 0.0
2015-Aug-17 05:33N 55°59' W 003°11'0 0.0
2015-Aug-17 04:33N 55°59' W 003°11'0 0.0
2015-Aug-17 03:33N 55°59' W 003°11'0 0.0
2015-Aug-17 02:33N 55°59' W 003°11'0 0.0
2015-Aug-17 01:24N 55°59' W 003°11'0 0.0
2015-Aug-17 00:24N 55°59' W 003°11'0 0.0
2015-Aug-16 23:27N 55°59' W 003°11'0 0.0
2015-Aug-16 22:27N 55°59' W 003°11'0 0.0
2015-Aug-16 21:27N 55°59' W 003°11'0 0.0
2015-Aug-16 20:27N 55°59' W 003°11'0 0.0
2015-Aug-16 19:27N 55°59' W 003°11'0 0.0
2015-Aug-16 18:30N 55°59' W 003°11'0 0.0
2015-Aug-16 17:30N 55°59' W 003°11'0 0.0
2015-Aug-16 16:30N 55°59' W 003°11'0 0.0
2015-Aug-16 15:30N 55°59' W 003°11'0 0.0
2015-Aug-16 14:27N 55°59' W 003°11'0 0.0
2015-Aug-16 13:30N 55°59' W 003°11'0 0.0
2015-Aug-16 12:33N 55°59' W 003°11'0 0.0
2015-Aug-16 11:33N 55°59' W 003°11'  
Track history (hours):
 
Tides and Currents Weather Stations Pressure Air Temp Water Temp Dewpoint Dewpoint Depression Visibility Wind Speed Wind Dir Waves Ship Positions

Lord Nelson (United Kingdom)

Ship's website: http://www.jst.org.uk/

Last reported at 2015-Aug-26 11:12 UTC. Time now 2015-Aug-30 14:00 UTC.
Position N 51°30' W 000°01'.

Length 54.7 m; beam 9 m; draft 4.1 m.

Type: Sailing vessel. MMSI: 232003690.

Date/timePositionNaut miles runAvg speedWind from/ knotsBaromVisibWave heightAir tempDewpointWater temp
2015-Aug-26 11:12N 51°30' W 000°01'0 0.0
2015-Aug-26 09:23N 51°30' W 000°01'0 0.1
2015-Aug-26 08:31N 51°30' W 000°01'4 4.5
2015-Aug-26 07:33N 51°31' E 000°06'8 7.7
2015-Aug-26 06:34N 51°28' E 000°18'3 2.7
2015-Aug-26 05:34N 51°27' E 000°22'0 0.0
2015-Aug-26 04:34N 51°27' E 000°22'0 0.0
2015-Aug-26 03:34N 51°27' E 000°22'0 0.0
2015-Aug-26 02:34N 51°27' E 000°22'0 0.0
2015-Aug-26 01:34N 51°27' E 000°22'0 0.0
2015-Aug-26 00:33N 51°27' E 000°22'0 0.0
2015-Aug-25 23:33N 51°27' E 000°22'0 0.0
2015-Aug-25 22:33N 51°27' E 000°22'0 0.0
2015-Aug-25 21:34N 51°27' E 000°22'0 0.0
2015-Aug-25 20:34N 51°27' E 000°22'0 0.0
2015-Aug-25 19:34N 51°27' E 000°22'0 0.0
2015-Aug-25 18:33N 51°27' E 000°22'4 4.0
2015-Aug-25 17:33N 51°29' E 000°27'5 5.5
2015-Aug-25 16:33N 51°30' E 000°36'6 6.2
2015-Aug-25 15:33N 51°29' E 000°46'6 6.3
2015-Aug-25 14:33N 51°29' E 000°56'6 5.8
2015-Aug-25 13:33N 51°30' E 001°05'6 6.2
2015-Aug-25 12:33N 51°29' E 001°15'6 5.9
2015-Aug-25 11:33N 51°28' E 001°24'3 2.9
2015-Aug-25 10:32N 51°25' E 001°25'0 0.0
2015-Aug-25 09:32N 51°25' E 001°25'0 0.0
2015-Aug-25 07:31N 51°25' E 001°25'0 0.1
2015-Aug-25 06:31N 51°25' E 001°25'0 0.0
2015-Aug-25 05:31N 51°25' E 001°25'0 0.1
2015-Aug-25 04:31N 51°25' E 001°25'3 3.0
2015-Aug-25 03:33N 51°26' E 001°29'5 5.2
2015-Aug-25 02:33N 51°30' E 001°35'4 4.3
2015-Aug-25 01:33N 51°33' E 001°40'4 4.5
2015-Aug-25 00:33N 51°36' E 001°46'6 6.3
2015-Aug-24 23:33N 51°42' E 001°45'5 5.5
2015-Aug-24 22:33N 51°47' E 001°44'5 5.5
2015-Aug-24 21:33N 51°53' E 001°44'5 4.7
2015-Aug-24 20:33N 51°57' E 001°45'4 4.1
2015-Aug-24 19:34N 52°02' E 001°46'4 4.4
2015-Aug-24 18:33N 52°06' E 001°47'6 5.7
2015-Aug-24 17:33N 52°12' E 001°48'7 7.2
2015-Aug-24 16:33N 52°19' E 001°50'7 7.1
2015-Aug-24 15:33N 52°26' E 001°53'8 8.4
2015-Aug-24 14:33N 52°34' E 001°56'9 9.0
2015-Aug-24 13:33N 52°43' E 001°57'7 7.0
2015-Aug-24 12:33N 52°47' E 001°48'8 7.6
2015-Aug-24 11:34N 52°53' E 001°40'7 7.0
2015-Aug-24 10:34N 52°58' E 001°32'6 6.3
2015-Aug-24 09:33N 53°03' E 001°25'6 6.3
2015-Aug-24 08:34N 53°08' E 001°20'6 6.0
2015-Aug-24 07:33N 53°14' E 001°16'6 6.1
2015-Aug-24 06:33N 53°19' E 001°11'20 6.4
2015-Aug-24 03:27N 53°37' E 000°55'6 6.6
2015-Aug-24 02:33N 53°42' E 000°50'7 6.5
2015-Aug-24 01:33N 53°46' E 000°42'7 6.7
2015-Aug-24 00:33N 53°51' E 000°33'7 6.7
2015-Aug-23 23:33N 53°56' E 000°27'7 6.7
2015-Aug-23 22:33N 54°01' E 000°18'7 6.7
2015-Aug-23 21:33N 54°06' E 000°11'7 6.9
2015-Aug-23 20:33N 54°13' E 000°11'5 5.5
2015-Aug-23 19:33N 54°18' E 000°08'5 4.8
2015-Aug-23 18:33N 54°22' E 000°05'6 5.5
2015-Aug-23 17:33N 54°28' E 000°03'5 5.0
2015-Aug-23 16:33N 54°33' E 000°00'5 4.7
2015-Aug-23 15:33N 54°37' W 000°03'2 2.2
2015-Aug-23 14:33N 54°36' W 000°06'4 4.3
2015-Aug-23 13:33N 54°33' W 000°12'4 4.2
2015-Aug-23 12:33N 54°31' W 000°17'3 2.7
2015-Aug-23 11:33N 54°32' W 000°21'4 3.9
2015-Aug-23 10:34N 54°31' W 000°28'5 4.5
2015-Aug-23 09:30N 54°31' W 000°36'2 0.7
2015-Aug-23 07:24N 54°29' W 000°37'0 0.0
2015-Aug-23 02:27N 54°29' W 000°37'0 0.0
2015-Aug-23 01:30N 54°29' W 000°37'0 0.0
2015-Aug-22 23:18N 54°29' W 000°37'0 0.0
2015-Aug-22 22:09N 54°29' W 000°37'0 0.0
2015-Aug-22 17:27N 54°29' W 000°37'0 0.0
2015-Aug-22 16:15N 54°29' W 000°37'0 0.0
2015-Aug-22 15:18N 54°29' W 000°37'0 0.0
2015-Aug-22 13:18N 54°29' W 000°37'0 0.0
2015-Aug-22 09:27N 54°29' W 000°37'0 0.0
2015-Aug-22 05:33N 54°29' W 000°37'0 0.0
2015-Aug-22 04:32N 54°29' W 000°37'0 0.0
2015-Aug-22 02:29N 54°29' W 000°37'0 0.0
2015-Aug-22 00:32N 54°29' W 000°37'0 0.0
2015-Aug-21 23:33N 54°29' W 000°37'0 0.0
2015-Aug-21 22:23N 54°29' W 000°37'0 0.0
2015-Aug-21 21:29N 54°29' W 000°37'0 0.0
2015-Aug-21 18:23N 54°29' W 000°37'0 0.0
2015-Aug-21 17:29N 54°29' W 000°37'0 0.0
2015-Aug-21 16:29N 54°29' W 000°37'0 0.0
2015-Aug-21 12:23N 54°29' W 000°37'0 0.0
2015-Aug-21 11:32N 54°29' W 000°37'0 0.0
2015-Aug-21 10:23N 54°29' W 000°37'0 0.0
2015-Aug-21 09:23N 54°29' W 000°37'0 0.0
2015-Aug-21 07:32N 54°29' W 000°37'2 1.8
2015-Aug-21 06:30N 54°31' W 000°36'2 2.6
2015-Aug-21 05:33N 54°33' W 000°33'2 1.6
2015-Aug-21 04:30N 54°31' W 000°34'3 2.7
2015-Aug-21 03:33N 54°34' W 000°36'2 2.1
2015-Aug-21 02:32N 54°35' W 000°39'3 3.0
2015-Aug-21 01:33N 54°38' W 000°40'3 3.2
2015-Aug-21 00:33N 54°41' W 000°41'5 4.7
2015-Aug-20 23:33N 54°46' W 000°43'6 5.9
2015-Aug-20 22:33N 54°51' W 000°46'6 5.7
2015-Aug-20 21:25N 54°57' W 000°50'5 5.2
2015-Aug-20 20:33N 55°02' W 000°52'6 5.9
2015-Aug-20 19:28N 55°08' W 000°54'6 6.4
2015-Aug-20 18:31N 55°14' W 000°57'4 3.2
2015-Aug-20 17:26N 55°14' W 001°03'8 3.6
2015-Aug-20 15:09N 55°12' W 001°17'3 5.1
2015-Aug-20 14:33N 55°10' W 001°22'5 4.5
2015-Aug-20 13:32N 55°06' W 001°26'4 0.2
2015-Aug-19 16:32N 55°10' W 001°27'8 6.4
2015-Aug-19 15:22N 55°17' W 001°29'5 5.7
2015-Aug-19 14:32N 55°22' W 001°29'30 1.3
2015-Aug-18 15:32N 55°50' W 001°50'7 6.3
2015-Aug-18 14:25N 55°55' W 001°59'5 5.5
2015-Aug-18 13:33N 55°57' W 002°06'5 5.1
2015-Aug-18 12:33N 55°59' W 002°14'6 6.4
2015-Aug-18 11:33N 56°02' W 002°24'7 7.1
2015-Aug-18 10:33N 56°06' W 002°35'7 7.2
2015-Aug-18 09:33N 56°06' W 002°48'7 7.5
2015-Aug-18 08:33N 56°01' W 002°59'3 3.1
2015-Aug-18 07:33N 55°59' W 003°02'0 0.0
2015-Aug-18 06:33N 55°59' W 003°02'0 0.0
2015-Aug-18 05:33N 55°59' W 003°02'0 0.0
2015-Aug-18 04:24N 55°59' W 003°02'0 0.0
2015-Aug-18 04:09N 55°59' W 003°02'0 0.1
2015-Aug-18 04:06N 55°59' W 003°02'0 0.0
2015-Aug-18 03:24N 55°59' W 003°02'0 0.0
2015-Aug-18 02:24N 55°59' W 003°02'0 0.0
2015-Aug-18 01:27N 55°59' W 003°02'0 0.0
2015-Aug-18 00:27N 55°59' W 003°02'0 0.0
2015-Aug-17 23:27N 55°59' W 003°02'0 0.0
2015-Aug-17 22:27N 55°59' W 003°02'0 0.0
2015-Aug-17 21:27N 55°59' W 003°02'0 0.0
2015-Aug-17 20:27N 55°59' W 003°02'0 0.0
2015-Aug-17 19:33N 55°59' W 003°02'5 5.2
2015-Aug-17 18:33N 56°00' W 003°11'1 1.3
2015-Aug-17 17:31N 55°59' W 003°11'0 0.0
2015-Aug-17 16:30N 55°59' W 003°11'0 0.0
2015-Aug-17 15:33N 55°59' W 003°11'0 0.0
2015-Aug-17 14:33N 55°59' W 003°11'0 0.0
2015-Aug-17 13:33N 55°59' W 003°11'0 0.0
2015-Aug-17 12:33N 55°59' W 003°11'0 0.0
2015-Aug-17 11:33N 55°59' W 003°11'0 0.0
2015-Aug-17 10:33N 55°59' W 003°11'0 0.0
2015-Aug-17 09:33N 55°59' W 003°11'0 0.0
2015-Aug-17 08:33N 55°59' W 003°11'0 0.0
2015-Aug-17 07:33N 55°59' W 003°11'0 0.0
2015-Aug-17 06:21N 55°59' W 003°11'0 0.0
2015-Aug-17 05:33N 55°59' W 003°11'0 0.0
2015-Aug-17 04:33N 55°59' W 003°11'0 0.0
2015-Aug-17 03:33N 55°59' W 003°11'0 0.0
2015-Aug-17 02:33N 55°59' W 003°11'0 0.0
2015-Aug-17 01:24N 55°59' W 003°11'0 0.0
2015-Aug-17 00:24N 55°59' W 003°11'0 0.0
2015-Aug-16 23:27N 55°59' W 003°11'0 0.0
2015-Aug-16 22:27N 55°59' W 003°11'0 0.0
2015-Aug-16 21:27N 55°59' W 003°11'0 0.0
2015-Aug-16 20:27N 55°59' W 003°11'0 0.0
2015-Aug-16 19:27N 55°59' W 003°11'0 0.0
2015-Aug-16 18:30N 55°59' W 003°11'0 0.0
2015-Aug-16 17:30N 55°59' W 003°11'0 0.0
2015-Aug-16 16:30N 55°59' W 003°11'0 0.0
2015-Aug-16 15:30N 55°59' W 003°11'0 0.0
2015-Aug-16 14:27N 55°59' W 003°11'0 0.0
2015-Aug-16 13:30N 55°59' W 003°11'0 0.0
2015-Aug-16 12:33N 55°59' W 003°11'0 0.0
2015-Aug-16 11:33N 55°59' W 003°11'  

Dump ship's entire track history